sensor_id;sensor_type;location;lat;lon;timestamp;temperature;humidity
63260;DHT22;49390;51.380;0.098;2024-03-08T18:52:47;7.20;99.90
63260;DHT22;49390;51.380;0.098;2024-03-08T18:56:23;7.20;99.90
63260;DHT22;49390;51.380;0.098;2024-03-08T18:58:51;7.30;99.90
63260;DHT22;49390;51.380;0.098;2024-03-08T19:01:18;7.30;99.90
63260;DHT22;49390;51.380;0.098;2024-03-08T19:03:53;7.30;99.90
63260;DHT22;49390;51.380;0.098;2024-03-08T19:06:22;7.40;99.90
63260;DHT22;49390;51.380;0.098;2024-03-08T19:08:55;7.40;99.90
63260;DHT22;49390;51.380;0.098;2024-03-08T19:11:22;7.40;99.90
63260;DHT22;49390;51.380;0.098;2024-03-08T19:13:50;7.50;99.90
63260;DHT22;49390;51.380;0.098;2024-03-08T19:16:18;7.50;99.90
63260;DHT22;49390;51.380;0.098;2024-03-08T19:18:48;7.50;99.90
63260;DHT22;49390;51.380;0.098;2024-03-08T19:21:16;7.60;99.90
63260;DHT22;49390;51.380;0.098;2024-03-08T19:23:44;7.60;99.90
63260;DHT22;49390;51.380;0.098;2024-03-08T19:26:12;7.60;99.90
63260;DHT22;49390;51.380;0.098;2024-03-08T19:28:43;7.60;99.90
63260;DHT22;49390;51.380;0.098;2024-03-08T19:31:14;7.60;99.90
63260;DHT22;49390;51.380;0.098;2024-03-08T19:33:43;7.60;99.90
63260;DHT22;49390;51.380;0.098;2024-03-08T19:36:10;7.60;99.90
63260;DHT22;49390;51.380;0.098;2024-03-08T19:38:40;7.60;99.90
63260;DHT22;49390;51.380;0.098;2024-03-08T19:41:08;7.60;99.90
63260;DHT22;49390;51.380;0.098;2024-03-08T19:43:38;7.60;99.90
63260;DHT22;49390;51.380;0.098;2024-03-08T19:46:06;7.60;99.90
63260;DHT22;49390;51.380;0.098;2024-03-08T19:48:37;7.60;99.90
63260;DHT22;49390;51.380;0.098;2024-03-08T19:51:09;7.60;99.90
63260;DHT22;49390;51.380;0.098;2024-03-08T19:53:38;7.50;99.90
63260;DHT22;49390;51.380;0.098;2024-03-08T19:56:06;7.50;99.90
63260;DHT22;49390;51.380;0.098;2024-03-08T19:58:35;7.50;99.90
63260;DHT22;49390;51.380;0.098;2024-03-08T20:01:03;7.50;99.90
63260;DHT22;49390;51.380;0.098;2024-03-08T20:03:32;7.40;99.90
63260;DHT22;49390;51.380;0.098;2024-03-08T20:06:01;7.40;99.90
63260;DHT22;49390;51.380;0.098;2024-03-08T20:08:28;7.40;99.90
63260;DHT22;49390;51.380;0.098;2024-03-08T20:10:58;7.40;99.90
63260;DHT22;49390;51.380;0.098;2024-03-08T20:13:37;7.40;99.90
63260;DHT22;49390;51.380;0.098;2024-03-08T20:16:05;7.30;99.90
63260;DHT22;49390;51.380;0.098;2024-03-08T20:18:36;7.30;99.90
63260;DHT22;49390;51.380;0.098;2024-03-08T20:21:04;7.20;99.90
63260;DHT22;49390;51.380;0.098;2024-03-08T20:23:32;7.30;99.90
63260;DHT22;49390;51.380;0.098;2024-03-08T20:26:00;7.20;99.90
63260;DHT22;49390;51.380;0.098;2024-03-08T20:28:33;7.20;99.90
63260;DHT22;49390;51.380;0.098;2024-03-08T20:31:01;7.20;99.90
63260;DHT22;49390;51.380;0.098;2024-03-08T20:33:29;7.20;99.90
63260;DHT22;49390;51.380;0.098;2024-03-08T20:35:59;7.20;99.90
63260;DHT22;49390;51.380;0.098;2024-03-08T20:38:29;7.20;99.90
63260;DHT22;49390;51.380;0.098;2024-03-08T20:40:57;7.20;99.90
63260;DHT22;49390;51.380;0.098;2024-03-08T20:43:25;7.20;99.90
63260;DHT22;49390;51.380;0.098;2024-03-08T20:45:53;7.10;99.90
63260;DHT22;49390;51.380;0.098;2024-03-08T20:48:21;7.10;99.90
63260;DHT22;49390;51.380;0.098;2024-03-08T20:50:49;7.20;99.90
63260;DHT22;49390;51.380;0.098;2024-03-08T20:53:19;7.10;99.90
63260;DHT22;49390;51.380;0.098;2024-03-08T20:55:47;7.20;99.90
63260;DHT22;49390;51.380;0.098;2024-03-08T20:58:17;7.20;99.90
63260;DHT22;49390;51.380;0.098;2024-03-08T21:00:46;7.20;99.90
63260;DHT22;49390;51.380;0.098;2024-03-08T21:03:24;7.30;99.90
63260;DHT22;49390;51.380;0.098;2024-03-08T21:05:54;7.20;99.90
63260;DHT22;49390;51.380;0.098;2024-03-08T21:08:24;7.20;99.90
63260;DHT22;49390;51.380;0.098;2024-03-08T21:10:54;7.20;99.90
63260;DHT22;49390;51.380;0.098;2024-03-08T21:13:24;7.10;99.90
63260;DHT22;49390;51.380;0.098;2024-03-08T21:15:54;7.10;99.90
63260;DHT22;49390;51.380;0.098;2024-03-08T21:18:22;7.10;99.90
63260;DHT22;49390;51.380;0.098;2024-03-08T21:20:52;7.10;99.90
63260;DHT22;49390;51.380;0.098;2024-03-08T21:23:21;7.10;99.90
63260;DHT22;49390;51.380;0.098;2024-03-08T21:25:48;7.10;99.90
63260;DHT22;49390;51.380;0.098;2024-03-08T21:28:16;7.00;99.90
63260;DHT22;49390;51.380;0.098;2024-03-08T21:30:56;7.00;99.90
63260;DHT22;49390;51.380;0.098;2024-03-08T21:33:28;7.00;99.90
63260;DHT22;49390;51.380;0.098;2024-03-08T21:35:56;7.00;99.90
63260;DHT22;49390;51.380;0.098;2024-03-08T21:38:27;6.90;99.90
63260;DHT22;49390;51.380;0.098;2024-03-08T21:40:56;7.00;99.90
63260;DHT22;49390;51.380;0.098;2024-03-08T21:43:31;7.00;99.90
63260;DHT22;49390;51.380;0.098;2024-03-08T21:46:02;6.90;99.90
63260;DHT22;49390;51.380;0.098;2024-03-08T21:48:31;6.90;99.90
63260;DHT22;49390;51.380;0.098;2024-03-08T21:51:00;6.90;99.90
63260;DHT22;49390;51.380;0.098;2024-03-08T21:53:28;6.90;99.90
63260;DHT22;49390;51.380;0.098;2024-03-08T21:56:02;6.80;99.90
63260;DHT22;49390;51.380;0.098;2024-03-08T21:58:31;6.90;99.90
63260;DHT22;49390;51.380;0.098;2024-03-08T22:01:00;6.90;99.90
63260;DHT22;49390;51.380;0.098;2024-03-08T22:03:29;6.90;99.90
63260;DHT22;49390;51.380;0.098;2024-03-08T22:05:59;6.80;99.90
63260;DHT22;49390;51.380;0.098;2024-03-08T22:08:27;6.90;99.90
63260;DHT22;49390;51.380;0.098;2024-03-08T22:10:55;6.80;99.90
63260;DHT22;49390;51.380;0.098;2024-03-08T22:13:24;6.80;99.90
63260;DHT22;49390;51.380;0.098;2024-03-08T22:15:52;6.80;99.90
63260;DHT22;49390;51.380;0.098;2024-03-08T22:18:20;6.90;99.90
63260;DHT22;49390;51.380;0.098;2024-03-08T22:20:47;6.90;99.90
63260;DHT22;49390;51.380;0.098;2024-03-08T22:23:15;6.90;99.90
63260;DHT22;49390;51.380;0.098;2024-03-08T22:25:45;6.90;99.90
63260;DHT22;49390;51.380;0.098;2024-03-08T22:28:14;5.80;99.90
63260;DHT22;49390;51.380;0.098;2024-03-08T22:30:44;6.90;99.90
63260;DHT22;49390;51.380;0.098;2024-03-08T22:33:14;6.90;99.90
63260;DHT22;49390;51.380;0.098;2024-03-08T22:35:45;7.00;99.90
63260;DHT22;49390;51.380;0.098;2024-03-08T22:38:13;6.90;99.90
63260;DHT22;49390;51.380;0.098;2024-03-08T22:40:40;6.90;99.90
63260;DHT22;49390;51.380;0.098;2024-03-08T22:43:09;6.90;99.90
63260;DHT22;49390;51.380;0.098;2024-03-08T22:45:38;7.00;99.90
63260;DHT22;49390;51.380;0.098;2024-03-08T22:48:06;6.90;99.90
63260;DHT22;49390;51.380;0.098;2024-03-08T22:50:34;7.00;99.90
63260;DHT22;49390;51.380;0.098;2024-03-08T22:53:04;6.90;99.90
63260;DHT22;49390;51.380;0.098;2024-03-08T22:55:33;6.90;99.90
63260;DHT22;49390;51.380;0.098;2024-03-08T22:58:01;7.00;99.90
63260;DHT22;49390;51.380;0.098;2024-03-08T23:00:29;6.90;99.90
63260;DHT22;49390;51.380;0.098;2024-03-08T23:03:06;7.00;99.90
63260;DHT22;49390;51.380;0.098;2024-03-08T23:05:38;7.10;99.90
63260;DHT22;49390;51.380;0.098;2024-03-08T23:08:08;7.00;99.90
63260;DHT22;49390;51.380;0.098;2024-03-08T23:10:36;7.10;99.90
63260;DHT22;49390;51.380;0.098;2024-03-08T23:13:07;7.10;99.90
63260;DHT22;49390;51.380;0.098;2024-03-08T23:15:37;7.10;99.90
63260;DHT22;49390;51.380;0.098;2024-03-08T23:18:09;7.10;99.90
63260;DHT22;49390;51.380;0.098;2024-03-08T23:20:41;7.10;99.90
63260;DHT22;49390;51.380;0.098;2024-03-08T23:23:12;7.10;99.90
63260;DHT22;49390;51.380;0.098;2024-03-08T23:25:41;7.00;99.90
63260;DHT22;49390;51.380;0.098;2024-03-08T23:28:09;7.10;99.90
63260;DHT22;49390;51.380;0.098;2024-03-08T23:30:40;7.00;99.90
63260;DHT22;49390;51.380;0.098;2024-03-08T23:33:09;7.10;99.90
63260;DHT22;49390;51.380;0.098;2024-03-08T23:35:42;7.10;99.90
63260;DHT22;49390;51.380;0.098;2024-03-08T23:38:14;7.10;99.90
63260;DHT22;49390;51.380;0.098;2024-03-08T23:40:42;7.10;99.90
63260;DHT22;49390;51.380;0.098;2024-03-08T23:43:10;7.10;99.90
63260;DHT22;49390;51.380;0.098;2024-03-08T23:45:40;7.10;99.90
63260;DHT22;49390;51.380;0.098;2024-03-08T23:48:08;7.10;99.90
63260;DHT22;49390;51.380;0.098;2024-03-08T23:50:38;7.10;99.90
63260;DHT22;49390;51.380;0.098;2024-03-08T23:53:06;7.10;99.90
63260;DHT22;49390;51.380;0.098;2024-03-08T23:55:36;7.20;99.90
63260;DHT22;49390;51.380;0.098;2024-03-08T23:58:09;7.10;99.90
